createdAt,value
2017-02-23T00:00:25.561Z,0
2017-02-23T00:01:26.784Z,0
2017-02-23T00:02:26.410Z,0
2017-02-23T00:03:26.447Z,0
2017-02-23T00:04:26.491Z,0
2017-02-23T00:05:26.108Z,0
2017-02-23T00:06:26.917Z,0
2017-02-23T00:07:26.943Z,0
2017-02-23T00:08:26.198Z,0
2017-02-23T00:09:26.598Z,0
2017-02-23T00:10:26.252Z,0
2017-02-23T00:11:25.884Z,0
2017-02-23T00:12:26.294Z,0
2017-02-23T00:13:26.737Z,0
2017-02-23T00:14:26.746Z,0
2017-02-23T00:15:26.771Z,0
2017-02-23T00:16:27.435Z,0
2017-02-23T00:17:26.833Z,0
2017-02-23T00:18:26.836Z,0
2017-02-23T00:19:26.486Z,0
2017-02-23T00:20:26.940Z,0
2017-02-23T00:21:27.199Z,0
2017-02-23T00:22:27.364Z,0
2017-02-23T00:23:27.000Z,0
2017-02-23T00:24:27.037Z,0
2017-02-23T00:25:27.050Z,0
2017-02-23T00:26:26.910Z,0
2017-02-23T00:27:27.503Z,0
2017-02-23T00:28:27.520Z,0
2017-02-23T00:29:27.156Z,0
2017-02-23T00:30:27.572Z,0
2017-02-23T00:31:27.445Z,0
2017-02-23T00:32:26.838Z,0
2017-02-23T00:33:27.247Z,0
2017-02-23T00:34:26.888Z,0
2017-02-23T00:35:27.304Z,0
2017-02-23T00:36:27.985Z,0
2017-02-23T00:37:27.366Z,0
2017-02-23T00:38:27.407Z,0
2017-02-23T00:39:27.819Z,0
2017-02-23T00:40:27.459Z,0
2017-02-23T00:41:28.127Z,0
2017-02-23T00:42:27.929Z,0
2017-02-23T00:43:27.138Z,0
2017-02-23T00:44:27.168Z,0
2017-02-23T00:45:27.983Z,0
2017-02-23T00:46:27.468Z,0
2017-02-23T00:47:27.649Z,0
2017-02-23T00:48:27.256Z,0
2017-02-23T00:49:26.919Z,0
2017-02-23T00:50:27.719Z,0
2017-02-23T00:51:27.610Z,0
2017-02-23T00:52:27.780Z,0
2017-02-23T00:53:27.416Z,0
2017-02-23T00:54:27.830Z,0
2017-02-23T00:55:27.874Z,0
2017-02-23T00:56:28.126Z,0
2017-02-23T00:57:27.927Z,0
2017-02-23T00:58:28.376Z,0
2017-02-23T00:59:27.964Z,0
2017-02-23T01:00:27.988Z,0
2017-02-23T01:01:28.274Z,0
2017-02-23T01:02:28.054Z,0
2017-02-23T01:03:28.465Z,0
2017-02-23T01:04:27.712Z,0
2017-02-23T01:05:28.520Z,0
2017-02-23T01:06:28.032Z,0
2017-02-23T01:07:28.202Z,0
2017-02-23T01:08:28.210Z,0
2017-02-23T01:09:28.243Z,0
2017-02-23T01:10:27.880Z,0
2017-02-23T01:11:28.940Z,0
2017-02-23T01:12:27.921Z,0
2017-02-23T01:13:28.357Z,0
2017-02-23T01:14:28.766Z,0
2017-02-23T01:15:28.011Z,0
2017-02-23T01:16:28.679Z,0
2017-02-23T01:17:28.048Z,0
2017-02-23T01:18:27.717Z,0
2017-02-23T01:19:28.906Z,0
2017-02-23T01:20:28.563Z,0
2017-02-23T01:21:28.443Z,0
2017-02-23T01:22:28.215Z,0
2017-02-23T01:23:28.253Z,0
2017-02-23T01:24:28.674Z,0
2017-02-23T01:25:28.705Z,0
2017-02-23T01:26:29.346Z,0
2017-02-23T01:27:28.336Z,0
2017-02-23T01:28:28.360Z,0
2017-02-23T01:29:28.409Z,0
2017-02-23T01:30:28.819Z,0
2017-02-23T01:31:29.646Z,0
2017-02-23T01:32:29.270Z,0
2017-02-23T01:33:28.112Z,0
2017-02-23T01:34:29.325Z,0
2017-02-23T01:35:29.353Z,0
2017-02-23T01:36:28.578Z,0
2017-02-23T01:37:29.425Z,0
2017-02-23T01:38:28.652Z,0
2017-02-23T01:39:28.657Z,0
2017-02-23T01:40:28.684Z,0
2017-02-23T01:41:29.526Z,0
2017-02-23T01:42:29.534Z,0
2017-02-23T01:43:28.799Z,0
2017-02-23T01:44:29.583Z,0
2017-02-23T01:45:28.821Z,0
2017-02-23T01:46:29.244Z,0
2017-02-23T01:47:28.895Z,0
2017-02-23T01:48:28.511Z,0
2017-02-23T01:49:28.936Z,0
2017-02-23T01:50:29.801Z,0
2017-02-23T01:51:29.778Z,0
2017-02-23T01:52:29.018Z,0
2017-02-23T01:53:31.049Z,0
2017-02-23T01:54:29.060Z,0
2017-02-23T01:55:29.504Z,0
2017-02-23T01:56:29.525Z,0
2017-02-23T01:57:30.206Z,0
2017-02-23T01:58:29.179Z,0
2017-02-23T01:59:29.992Z,0
2017-02-23T02:00:29.621Z,0
2017-02-23T02:01:29.656Z,0
2017-02-23T02:02:29.950Z,0
2017-02-23T02:03:30.111Z,0
2017-02-23T02:04:29.752Z,0
2017-02-23T02:05:29.376Z,0
2017-02-23T02:06:29.805Z,0
2017-02-23T02:07:30.066Z,0
2017-02-23T02:08:29.431Z,0
2017-02-23T02:09:29.868Z,0
2017-02-23T02:10:29.908Z,0
2017-02-23T02:11:30.325Z,0
2017-02-23T02:12:30.197Z,0
2017-02-23T02:13:30.398Z,0
2017-02-23T02:14:30.006Z,0
2017-02-23T02:15:29.244Z,0
2017-02-23T02:16:29.272Z,0
2017-02-23T02:17:30.745Z,0
2017-02-23T02:18:30.118Z,0
2017-02-23T02:19:29.739Z,0
2017-02-23T02:20:30.180Z,0
2017-02-23T02:21:30.201Z,0
2017-02-23T02:22:30.101Z,0
2017-02-23T02:23:29.853Z,0
2017-02-23T02:24:30.296Z,0
2017-02-23T02:25:30.299Z,0
2017-02-23T02:26:30.343Z,0
2017-02-23T02:27:30.226Z,0
2017-02-23T02:28:30.390Z,0
2017-02-23T02:29:30.023Z,0
2017-02-23T02:30:30.880Z,0
2017-02-23T02:31:30.081Z,0
2017-02-23T02:32:30.765Z,0
2017-02-23T02:33:30.534Z,0
2017-02-23T02:34:30.547Z,0
2017-02-23T02:35:30.999Z,0
2017-02-23T02:36:30.208Z,0
2017-02-23T02:37:30.493Z,0
2017-02-23T02:38:30.285Z,0
2017-02-23T02:39:30.287Z,0
2017-02-23T02:40:31.120Z,0
2017-02-23T02:41:30.753Z,0
2017-02-23T02:42:31.429Z,0
2017-02-23T02:43:30.013Z,0
2017-02-23T02:44:30.422Z,0
2017-02-23T02:45:30.847Z,0
2017-02-23T02:46:31.276Z,0
2017-02-23T02:47:30.757Z,0
2017-02-23T02:48:30.925Z,0
2017-02-23T02:49:31.370Z,0
2017-02-23T02:50:30.999Z,0
2017-02-23T02:51:31.020Z,0
2017-02-23T02:52:30.940Z,0
2017-02-23T02:53:31.065Z,0
2017-02-23T02:54:31.482Z,0
2017-02-23T02:55:30.730Z,0
2017-02-23T02:56:31.147Z,0
2017-02-23T02:57:31.448Z,0
2017-02-23T02:58:31.205Z,0
2017-02-23T02:59:31.618Z,0
2017-02-23T03:00:31.648Z,0
2017-02-23T03:01:30.504Z,0
2017-02-23T03:02:31.573Z,0
2017-02-23T03:03:30.945Z,0
2017-02-23T03:04:30.569Z,0
2017-02-23T03:05:31.395Z,0
2017-02-23T03:06:31.031Z,0
2017-02-23T03:07:31.724Z,0
2017-02-23T03:08:31.471Z,0
2017-02-23T03:09:31.497Z,0
2017-02-23T03:10:31.514Z,0
2017-02-23T03:11:31.959Z,0
2017-02-23T03:12:31.843Z,0
2017-02-23T03:13:31.212Z,0
2017-02-23T03:14:31.646Z,0
2017-02-23T03:15:31.654Z,0
2017-02-23T03:16:31.679Z,0
2017-02-23T03:17:31.571Z,0
2017-02-23T03:18:31.757Z,0
2017-02-23T03:19:31.766Z,0
2017-02-23T03:20:32.210Z,0
2017-02-23T03:21:31.823Z,0
2017-02-23T03:22:31.707Z,0
2017-02-23T03:23:31.493Z,0
2017-02-23T03:24:31.114Z,0
2017-02-23T03:25:32.330Z,0
2017-02-23T03:26:31.555Z,0
2017-02-23T03:27:32.239Z,0
2017-02-23T03:28:31.636Z,0
2017-02-23T03:29:31.632Z,0
2017-02-23T03:30:32.461Z,0
2017-02-23T03:31:32.487Z,0
2017-02-23T03:32:32.395Z,0
2017-02-23T03:33:31.744Z,0
2017-02-23T03:34:32.177Z,0
2017-02-23T03:35:31.807Z,0
2017-02-23T03:36:32.258Z,0
2017-02-23T03:37:32.507Z,0
2017-02-23T03:38:32.276Z,0
2017-02-23T03:39:31.917Z,0
2017-02-23T03:40:32.738Z,0
2017-02-23T03:41:31.565Z,0
2017-02-23T03:42:32.655Z,0
2017-02-23T03:43:32.415Z,0
2017-02-23T03:44:32.440Z,0
2017-02-23T03:45:32.481Z,0
2017-02-23T03:46:32.498Z,0
2017-02-23T03:47:32.394Z,0
2017-02-23T03:48:32.976Z,0
2017-02-23T03:49:32.576Z,0
2017-02-23T03:50:32.613Z,0
2017-02-23T03:51:32.242Z,0
2017-02-23T03:52:32.910Z,0
2017-02-23T03:53:32.692Z,0
2017-02-23T03:54:32.315Z,0
2017-02-23T03:55:33.142Z,0
2017-02-23T03:56:32.382Z,0
2017-02-23T03:57:33.054Z,0
2017-02-23T03:58:32.815Z,0
2017-02-23T03:59:33.245Z,0
2017-02-23T04:00:32.876Z,0
2017-02-23T04:01:32.518Z,0
2017-02-23T04:02:32.139Z,0
2017-02-23T04:03:32.560Z,0
2017-02-23T04:04:32.993Z,0
2017-02-23T04:05:32.617Z,0
2017-02-23T04:06:32.655Z,0
2017-02-23T04:07:33.479Z,0
2017-02-23T04:08:33.104Z,0
2017-02-23T04:09:33.128Z,0
2017-02-23T04:10:33.141Z,0
2017-02-23T04:11:33.177Z,0
2017-02-23T04:12:32.403Z,0
2017-02-23T04:13:33.520Z,0
2017-02-23T04:14:33.672Z,0
2017-02-23T04:15:33.285Z,0
2017-02-23T04:16:32.934Z,0
2017-02-23T04:17:33.326Z,0
2017-02-23T04:18:33.619Z,0
2017-02-23T04:19:33.404Z,0
2017-02-23T04:20:33.025Z,0
2017-02-23T04:21:33.846Z,0
2017-02-23T04:22:32.680Z,0
2017-02-23T04:23:33.352Z,0
2017-02-23T04:24:32.740Z,0
2017-02-23T04:25:33.561Z,0
2017-02-23T04:26:33.590Z,0
2017-02-23T04:27:34.010Z,0
2017-02-23T04:28:33.885Z,0
2017-02-23T04:29:33.267Z,0
2017-02-23T04:30:33.696Z,0
2017-02-23T04:31:33.325Z,0
2017-02-23T04:32:32.982Z,0
2017-02-23T04:33:34.066Z,0
2017-02-23T04:34:33.411Z,0
2017-02-23T04:35:33.823Z,0
2017-02-23T04:36:34.253Z,0
2017-02-23T04:37:33.893Z,0
2017-02-23T04:38:34.159Z,0
2017-02-23T04:39:33.531Z,0
2017-02-23T04:40:33.168Z,0
2017-02-23T04:41:33.601Z,0
2017-02-23T04:42:33.621Z,0
2017-02-23T04:43:34.322Z,0
2017-02-23T04:44:34.083Z,0
2017-02-23T04:45:34.100Z,0
2017-02-23T04:46:34.513Z,0
2017-02-23T04:47:34.157Z,0
2017-02-23T04:48:34.452Z,0
2017-02-23T04:49:33.807Z,0
2017-02-23T04:50:34.238Z,0
2017-02-23T04:51:33.468Z,0
2017-02-23T04:52:34.301Z,0
2017-02-23T04:53:34.569Z,0
2017-02-23T04:54:34.335Z,0
2017-02-23T04:55:34.755Z,0
2017-02-23T04:56:34.800Z,0
2017-02-23T04:57:34.437Z,0
2017-02-23T04:58:34.699Z,0
2017-02-23T04:59:34.466Z,0
2017-02-23T05:00:34.507Z,0
2017-02-23T05:01:34.940Z,0
2017-02-23T05:02:34.548Z,0
2017-02-23T05:03:34.037Z,0
2017-02-23T05:04:34.997Z,0
2017-02-23T05:05:34.635Z,0
2017-02-23T05:06:35.059Z,0
2017-02-23T05:07:34.276Z,0
2017-02-23T05:08:34.963Z,0
2017-02-23T05:09:35.136Z,0
2017-02-23T05:10:35.158Z,0
2017-02-23T05:11:35.182Z,0
2017-02-23T05:12:34.819Z,0
2017-02-23T05:13:35.092Z,0
2017-02-23T05:14:34.869Z,0
2017-02-23T05:15:35.306Z,0
2017-02-23T05:16:34.922Z,0
2017-02-23T05:17:34.962Z,0
2017-02-23T05:18:35.632Z,0
2017-02-23T05:19:35.413Z,0
2017-02-23T05:20:35.041Z,0
2017-02-23T05:21:35.078Z,0
2017-02-23T05:22:35.110Z,0
2017-02-23T05:23:35.363Z,0
2017-02-23T05:24:35.536Z,0
2017-02-23T05:25:35.563Z,0
2017-02-23T05:26:35.208Z,0
2017-02-23T05:27:34.822Z,0
2017-02-23T05:28:35.115Z,0
2017-02-23T05:29:34.884Z,0
2017-02-23T05:30:35.700Z,0
2017-02-23T05:31:34.926Z,0
2017-02-23T05:32:35.759Z,0
2017-02-23T05:33:35.238Z,0
2017-02-23T05:34:34.996Z,0
2017-02-23T05:35:34.652Z,0
2017-02-23T05:36:35.461Z,0
2017-02-23T05:37:35.490Z,0
2017-02-23T05:38:35.373Z,0
2017-02-23T05:39:35.546Z,0
2017-02-23T05:40:35.169Z,0
2017-02-23T05:41:35.214Z,0
2017-02-23T05:42:36.010Z,0
2017-02-23T05:43:35.922Z,0
2017-02-23T05:44:36.076Z,0
2017-02-23T05:45:35.308Z,0
2017-02-23T05:46:34.948Z,0
2017-02-23T05:47:35.761Z,0
2017-02-23T05:48:36.045Z,0
2017-02-23T05:49:35.822Z,0
2017-02-23T05:50:35.847Z,0
2017-02-23T05:51:35.477Z,0
2017-02-23T05:52:35.902Z,0
2017-02-23T05:53:36.169Z,0
2017-02-23T05:54:36.342Z,0
2017-02-23T05:55:35.971Z,0
2017-02-23T05:56:36.399Z,0
2017-02-23T05:57:36.049Z,0
2017-02-23T05:58:35.670Z,0
2017-02-23T05:59:36.099Z,0
2017-02-23T06:00:36.106Z,0
2017-02-23T06:01:35.744Z,0
2017-02-23T06:02:35.785Z,0
2017-02-23T06:03:36.597Z,0
2017-02-23T06:04:36.615Z,0
2017-02-23T06:05:36.263Z,0
2017-02-23T06:06:35.491Z,0
2017-02-23T06:07:35.902Z,0
2017-02-23T06:08:35.925Z,0
2017-02-23T06:09:35.810Z,0
2017-02-23T06:10:36.377Z,4
2017-02-23T06:11:36.020Z,4
2017-02-23T06:12:37.053Z,4
2017-02-23T06:13:36.478Z,4
2017-02-23T06:14:36.742Z,0
2017-02-23T06:15:36.911Z,4
2017-02-23T06:16:36.951Z,4
2017-02-23T06:17:36.171Z,4
2017-02-23T06:18:37.023Z,4
2017-02-23T06:19:36.493Z,8
2017-02-23T06:20:36.655Z,8
2017-02-23T06:21:37.079Z,8
2017-02-23T06:22:35.919Z,12
2017-02-23T06:23:36.336Z,12
2017-02-23T06:24:37.030Z,16
2017-02-23T06:25:37.184Z,20
2017-02-23T06:26:37.211Z,20
2017-02-23T06:27:36.864Z,16
2017-02-23T06:28:36.889Z,16
2017-02-23T06:29:37.145Z,20
2017-02-23T06:30:36.918Z,32
2017-02-23T06:31:36.972Z,32
2017-02-23T06:32:36.580Z,32
2017-02-23T06:33:37.012Z,44
2017-02-23T06:34:37.273Z,52
2017-02-23T06:35:37.065Z,48
2017-02-23T06:36:37.504Z,60
2017-02-23T06:37:37.542Z,52
2017-02-23T06:38:37.156Z,44
2017-02-23T06:39:37.021Z,60
2017-02-23T06:40:36.801Z,60
2017-02-23T06:41:37.233Z,68
2017-02-23T06:42:37.263Z,84
2017-02-23T06:43:37.272Z,96
2017-02-23T06:44:37.564Z,100
2017-02-23T06:45:37.354Z,116
2017-02-23T06:46:37.754Z,112
2017-02-23T06:47:37.790Z,88
2017-02-23T06:48:37.028Z,108
2017-02-23T06:49:37.687Z,100
2017-02-23T06:50:37.093Z,116
2017-02-23T06:51:36.729Z,112
2017-02-23T06:52:37.126Z,104
2017-02-23T06:53:37.155Z,116
2017-02-23T06:54:37.444Z,136
2017-02-23T06:55:37.220Z,120
2017-02-23T06:56:37.229Z,140
2017-02-23T06:57:37.272Z,172
2017-02-23T06:58:37.311Z,168
2017-02-23T06:59:37.556Z,192
2017-02-23T07:00:37.732Z,268
2017-02-23T07:01:37.769Z,212
2017-02-23T07:02:37.037Z,192
2017-02-23T07:03:37.442Z,192
2017-02-23T07:04:38.106Z,164
2017-02-23T07:05:38.285Z,188
2017-02-23T07:06:37.112Z,188
2017-02-23T07:07:38.325Z,204
2017-02-23T07:08:38.370Z,216
2017-02-23T07:09:38.238Z,240
2017-02-23T07:10:38.016Z,280
2017-02-23T07:11:38.457Z,316
2017-02-23T07:12:37.676Z,268
2017-02-23T07:13:37.305Z,296
2017-02-23T07:14:38.370Z,268
2017-02-23T07:15:37.755Z,244
2017-02-23T07:16:37.392Z,304
2017-02-23T07:17:37.812Z,392
2017-02-23T07:18:38.660Z,400
2017-02-23T07:19:38.732Z,300
2017-02-23T07:20:37.495Z,384
2017-02-23T07:21:38.318Z,392
2017-02-23T07:22:37.572Z,356
2017-02-23T07:23:38.360Z,424
2017-02-23T07:24:38.652Z,436
2017-02-23T07:25:38.042Z,432
2017-02-23T07:26:38.469Z,408
2017-02-23T07:27:38.528Z,448
2017-02-23T07:28:38.531Z,480
2017-02-23T07:29:38.788Z,384
2017-02-23T07:30:38.582Z,408
2017-02-23T07:31:38.211Z,508
2017-02-23T07:32:38.223Z,480
2017-02-23T07:33:38.654Z,460
2017-02-23T07:34:38.916Z,412
2017-02-23T07:35:38.698Z,412
2017-02-23T07:36:39.118Z,420
2017-02-23T07:37:38.375Z,452
2017-02-23T07:38:38.780Z,460
2017-02-23T07:39:38.660Z,440
2017-02-23T07:40:38.837Z,492
2017-02-23T07:41:38.864Z,540
2017-02-23T07:42:38.882Z,636
2017-02-23T07:43:38.531Z,816
2017-02-23T07:44:38.411Z,760
2017-02-23T07:45:38.201Z,800
2017-02-23T07:46:39.025Z,720
2017-02-23T07:47:39.438Z,892
2017-02-23T07:48:39.446Z,920
2017-02-23T07:49:39.347Z,804
2017-02-23T07:50:38.321Z,876
2017-02-23T07:51:38.752Z,892
2017-02-23T07:52:38.761Z,816
2017-02-23T07:53:39.199Z,872
2017-02-23T07:54:39.471Z,948
2017-02-23T07:55:38.876Z,960
2017-02-23T07:56:38.895Z,1224
2017-02-23T07:57:39.697Z,940
2017-02-23T07:58:38.535Z,992
2017-02-23T07:59:40.011Z,1220
2017-02-23T08:00:39.380Z,1036
2017-02-23T08:01:39.816Z,748
2017-02-23T08:02:39.429Z,660
2017-02-23T08:03:39.473Z,772
2017-02-23T08:04:40.155Z,716
2017-02-23T08:05:39.927Z,656
2017-02-23T08:06:39.544Z,772
2017-02-23T08:07:39.177Z,840
2017-02-23T08:08:39.210Z,1084
2017-02-23T08:09:39.643Z,836
2017-02-23T08:10:40.068Z,760
2017-02-23T08:11:39.292Z,716
2017-02-23T08:12:39.719Z,860
2017-02-23T08:13:39.346Z,972
2017-02-23T08:14:39.378Z,952
2017-02-23T08:15:40.042Z,1020
2017-02-23T08:16:39.416Z,1056
2017-02-23T08:17:39.854Z,1056
2017-02-23T08:18:39.893Z,1120
2017-02-23T08:19:39.930Z,1116
2017-02-23T08:20:40.175Z,1240
2017-02-23T08:21:39.971Z,1236
2017-02-23T08:22:40.393Z,924
2017-02-23T08:23:40.438Z,1064
2017-02-23T08:24:39.662Z,1020
2017-02-23T08:25:39.918Z,1044
2017-02-23T08:26:40.099Z,1224
2017-02-23T08:27:39.737Z,1172
2017-02-23T08:28:39.753Z,1124
2017-02-23T08:29:40.178Z,1088
2017-02-23T08:30:40.490Z,1384
2017-02-23T08:31:39.839Z,1200
2017-02-23T08:32:40.276Z,1216
2017-02-23T08:33:40.697Z,1344
2017-02-23T08:34:40.320Z,1108
2017-02-23T08:35:41.042Z,1260
2017-02-23T08:36:39.983Z,1180
2017-02-23T08:37:40.386Z,1160
2017-02-23T08:38:40.424Z,1196
2017-02-23T08:39:40.074Z,1108
2017-02-23T08:40:40.739Z,1412
2017-02-23T08:41:40.123Z,1356
2017-02-23T08:42:40.152Z,1184
2017-02-23T08:43:40.970Z,1308
2017-02-23T08:44:40.593Z,1448
2017-02-23T08:45:40.874Z,1360
2017-02-23T08:46:41.050Z,1080
2017-02-23T08:47:40.287Z,1228
2017-02-23T08:48:40.315Z,1304
2017-02-23T08:49:40.340Z,1612
2017-02-23T08:50:40.609Z,1140
2017-02-23T08:51:41.174Z,1116
2017-02-23T08:52:40.414Z,1448
2017-02-23T08:53:40.847Z,1312
2017-02-23T08:54:40.884Z,1152
2017-02-23T08:55:41.173Z,1120
2017-02-23T08:56:40.913Z,1444
2017-02-23T08:57:40.561Z,1192
2017-02-23T08:58:40.598Z,1120
2017-02-23T08:59:40.607Z,1160
2017-02-23T09:00:41.291Z,1220
2017-02-23T09:01:41.077Z,1312
2017-02-23T09:02:40.701Z,1284
2017-02-23T09:03:41.113Z,1220
2017-02-23T09:04:40.747Z,1364
2017-02-23T09:05:41.415Z,1184
2017-02-23T09:06:41.196Z,1060
2017-02-23T09:07:40.837Z,1272
2017-02-23T09:08:40.873Z,1512
2017-02-23T09:09:40.490Z,1384
2017-02-23T09:10:41.170Z,1288
2017-02-23T09:11:41.352Z,1196
2017-02-23T09:12:41.356Z,1424
2017-02-23T09:13:40.625Z,1088
2017-02-23T09:14:41.830Z,1336
2017-02-23T09:15:42.118Z,1252
2017-02-23T09:16:41.867Z,1160
2017-02-23T09:17:41.104Z,1184
2017-02-23T09:18:40.724Z,1376
2017-02-23T09:19:41.161Z,1644
2017-02-23T09:20:41.430Z,1736
2017-02-23T09:21:41.203Z,1196
2017-02-23T09:22:41.631Z,1648
2017-02-23T09:23:42.048Z,1380
2017-02-23T09:24:41.685Z,1240
2017-02-23T09:25:41.972Z,1204
2017-02-23T09:26:42.154Z,1320
2017-02-23T09:27:42.162Z,1588
2017-02-23T09:28:41.791Z,1656
2017-02-23T09:29:41.839Z,1484
2017-02-23T09:30:42.133Z,1404
2017-02-23T09:31:41.502Z,1412
2017-02-23T09:32:41.914Z,2296
2017-02-23T09:33:41.931Z,1604
2017-02-23T09:34:42.379Z,1788
2017-02-23T09:35:42.640Z,2404
2017-02-23T09:36:41.222Z,1972
2017-02-23T09:37:42.470Z,2352
2017-02-23T09:38:42.084Z,2020
2017-02-23T09:39:41.759Z,2236
2017-02-23T09:40:41.991Z,1864
2017-02-23T09:41:41.753Z,3000
2017-02-23T09:42:41.789Z,2252
2017-02-23T09:43:41.826Z,2516
2017-02-23T09:44:42.282Z,3136
2017-02-23T09:45:42.112Z,3612
2017-02-23T09:46:42.680Z,2716
2017-02-23T09:47:42.341Z,3096
2017-02-23T09:48:41.938Z,3704
2017-02-23T09:49:42.778Z,2780
2017-02-23T09:50:41.854Z,2652
2017-02-23T09:51:41.632Z,2292
2017-02-23T09:52:42.462Z,2720
2017-02-23T09:53:41.697Z,2968
2017-02-23T09:54:42.514Z,2628
2017-02-23T09:55:43.191Z,2160
2017-02-23T09:56:42.563Z,3328
2017-02-23T09:57:42.192Z,3032
2017-02-23T09:58:42.613Z,2008
2017-02-23T09:59:43.053Z,1944
2017-02-23T10:00:42.145Z,1892
2017-02-23T10:01:42.315Z,2756
2017-02-23T10:02:43.140Z,3104
2017-02-23T10:03:42.752Z,2164
2017-02-23T10:04:42.797Z,2128
2017-02-23T10:05:42.662Z,2556
2017-02-23T10:06:42.835Z,3080
2017-02-23T10:07:42.474Z,2880
2017-02-23T10:08:42.108Z,3076
2017-02-23T10:09:42.516Z,4776
2017-02-23T10:10:43.196Z,4788
2017-02-23T10:11:42.975Z,5144
2017-02-23T10:12:42.602Z,4540
2017-02-23T10:13:43.036Z,5436
2017-02-23T10:14:42.668Z,4008
2017-02-23T10:15:43.736Z,3572
2017-02-23T10:16:43.120Z,3176
2017-02-23T10:17:43.539Z,3572
2017-02-23T10:18:43.167Z,4000
2017-02-23T10:19:43.221Z,4320
2017-02-23T10:20:43.481Z,4448
2017-02-23T10:21:43.249Z,3804
2017-02-23T10:22:42.882Z,4836
2017-02-23T10:23:43.707Z,5560
2017-02-23T10:24:42.551Z,4928
2017-02-23T10:25:44.019Z,4488
2017-02-23T10:26:43.380Z,4048
2017-02-23T10:27:43.812Z,4680
2017-02-23T10:28:43.838Z,4556
2017-02-23T10:29:43.590Z,3908
2017-02-23T10:30:42.724Z,3608
2017-02-23T10:31:43.125Z,3516
2017-02-23T10:32:43.537Z,3400
2017-02-23T10:33:43.586Z,4072
2017-02-23T10:34:43.615Z,3652
2017-02-23T10:35:43.644Z,3984
2017-02-23T10:36:43.673Z,3340
2017-02-23T10:37:44.101Z,2540
2017-02-23T10:38:43.706Z,3012
2017-02-23T10:39:43.735Z,2264
2017-02-23T10:40:43.762Z,2792
2017-02-23T10:41:44.444Z,3084
2017-02-23T10:42:43.836Z,3932
2017-02-23T10:43:43.849Z,3308
2017-02-23T10:44:43.879Z,3156
2017-02-23T10:45:43.902Z,3840
2017-02-23T10:46:44.184Z,3640
2017-02-23T10:47:44.358Z,4696
2017-02-23T10:48:43.984Z,4136
2017-02-23T10:49:44.021Z,3580
2017-02-23T10:50:43.657Z,4460
2017-02-23T10:51:43.527Z,4300
2017-02-23T10:52:44.120Z,3992
2017-02-23T10:53:43.337Z,3568
2017-02-23T10:54:44.161Z,3688
2017-02-23T10:55:44.185Z,3612
2017-02-23T10:56:44.071Z,4152
2017-02-23T10:57:44.643Z,4204
2017-02-23T10:58:43.885Z,5004
2017-02-23T10:59:43.539Z,5556
2017-02-23T11:00:43.557Z,4608
2017-02-23T11:01:44.998Z,3964
2017-02-23T11:02:44.375Z,5108
2017-02-23T11:03:44.408Z,5040
2017-02-23T11:04:44.431Z,4656
2017-02-23T11:05:44.478Z,4544
2017-02-23T11:06:44.748Z,4504
2017-02-23T11:07:44.506Z,4572
2017-02-23T11:08:43.747Z,4252
2017-02-23T11:09:44.600Z,5172
2017-02-23T11:10:44.633Z,5088
2017-02-23T11:11:44.877Z,4932
2017-02-23T11:12:43.866Z,4980
2017-02-23T11:13:44.307Z,6512
2017-02-23T11:14:44.712Z,6220
2017-02-23T11:15:45.169Z,7004
2017-02-23T11:16:45.434Z,7548
2017-02-23T11:17:45.210Z,6028
2017-02-23T11:18:44.041Z,6696
2017-02-23T11:19:44.468Z,5620
2017-02-23T11:20:44.488Z,4088
2017-02-23T11:21:44.777Z,4532
2017-02-23T11:22:44.927Z,5236
2017-02-23T11:23:44.949Z,5752
2017-02-23T11:24:44.600Z,5792
2017-02-23T11:25:44.628Z,5576
2017-02-23T11:26:45.696Z,4312
2017-02-23T11:27:45.083Z,4428
2017-02-23T11:28:45.530Z,3616
2017-02-23T11:29:45.155Z,3272
2017-02-23T11:30:44.371Z,3524
2017-02-23T11:31:45.448Z,3188
2017-02-23T11:32:44.820Z,3712
2017-02-23T11:33:45.230Z,3652
2017-02-23T11:34:45.678Z,4108
2017-02-23T11:35:45.710Z,4488
2017-02-23T11:36:45.196Z,4144
2017-02-23T11:37:44.974Z,4796
2017-02-23T11:38:44.985Z,4508
2017-02-23T11:39:45.806Z,3868
2017-02-23T11:40:45.039Z,5224
2017-02-23T11:41:45.714Z,3476
2017-02-23T11:42:45.092Z,4416
2017-02-23T11:43:45.517Z,5600
2017-02-23T11:44:45.150Z,6664
2017-02-23T11:45:45.562Z,6824
2017-02-23T11:46:45.499Z,7228
2017-02-23T11:47:45.243Z,4940
2017-02-23T11:48:46.056Z,4364
2017-02-23T11:49:46.093Z,10012
2017-02-23T11:50:44.910Z,6792
2017-02-23T11:51:45.990Z,10580
2017-02-23T11:52:45.759Z,6388
2017-02-23T11:53:45.404Z,6348
2017-02-23T11:54:45.441Z,7788
2017-02-23T11:55:45.450Z,7336
2017-02-23T11:56:45.741Z,6128
2017-02-23T11:57:45.918Z,6400
2017-02-23T11:58:45.924Z,5460
2017-02-23T11:59:45.584Z,5448
2017-02-23T12:00:45.589Z,5228
2017-02-23T12:01:45.878Z,6564
2017-02-23T12:02:46.054Z,5104
2017-02-23T12:03:45.679Z,5152
2017-02-23T12:04:46.108Z,4416
2017-02-23T12:05:45.729Z,5556
2017-02-23T12:06:46.813Z,4648
2017-02-23T12:07:46.589Z,5200
2017-02-23T12:08:46.212Z,5368
2017-02-23T12:09:45.447Z,5808
2017-02-23T12:10:46.280Z,6256
2017-02-23T12:11:45.748Z,4744
2017-02-23T12:12:46.325Z,4896
2017-02-23T12:13:46.746Z,3684
2017-02-23T12:14:46.402Z,4092
2017-02-23T12:15:46.403Z,4432
2017-02-23T12:16:47.095Z,2756
2017-02-23T12:17:46.461Z,2620
2017-02-23T12:18:46.494Z,4064
2017-02-23T12:19:46.531Z,4160
2017-02-23T12:20:46.148Z,2172
2017-02-23T12:21:46.855Z,1484
2017-02-23T12:22:46.601Z,2392
2017-02-23T12:23:46.649Z,3200
2017-02-23T12:24:46.678Z,3684
2017-02-23T12:25:45.914Z,2548
2017-02-23T12:26:47.423Z,1640
2017-02-23T12:27:47.136Z,1832
2017-02-23T12:28:46.773Z,3288
2017-02-23T12:29:46.801Z,3348
2017-02-23T12:30:46.046Z,3276
2017-02-23T12:31:46.070Z,2456
2017-02-23T12:32:46.504Z,3396
2017-02-23T12:33:46.525Z,5972
2017-02-23T12:34:46.569Z,2468
2017-02-23T12:35:47.365Z,3568
2017-02-23T12:36:46.611Z,6760
2017-02-23T12:37:47.027Z,6452
2017-02-23T12:38:47.448Z,4408
2017-02-23T12:39:47.483Z,4876
2017-02-23T12:40:46.717Z,5948
2017-02-23T12:41:47.138Z,4748
2017-02-23T12:42:47.162Z,3316
2017-02-23T12:43:46.792Z,2712
2017-02-23T12:44:47.216Z,4452
2017-02-23T12:45:47.652Z,12168
2017-02-23T12:46:46.494Z,7148
2017-02-23T12:47:47.159Z,3224
2017-02-23T12:48:47.331Z,2496
2017-02-23T12:49:47.764Z,4428
2017-02-23T12:50:47.004Z,4128
2017-02-23T12:51:47.028Z,3660
2017-02-23T12:52:47.297Z,6500
2017-02-23T12:53:47.103Z,6592
2017-02-23T12:54:47.508Z,5528
2017-02-23T12:55:47.537Z,6256
2017-02-23T12:56:46.769Z,3968
2017-02-23T12:57:47.838Z,2920
2017-02-23T12:58:48.034Z,3956
2017-02-23T12:59:48.035Z,5088
2017-02-23T13:00:47.276Z,2916
2017-02-23T13:01:48.145Z,3732
2017-02-23T13:02:47.965Z,4036
2017-02-23T13:03:47.361Z,4176
2017-02-23T13:04:48.179Z,4444
2017-02-23T13:05:47.032Z,3036
2017-02-23T13:06:47.052Z,2864
2017-02-23T13:07:48.508Z,3064
2017-02-23T13:08:48.297Z,2900
2017-02-23T13:09:47.549Z,3076
2017-02-23T13:10:47.550Z,3036
2017-02-23T13:11:47.967Z,3036
2017-02-23T13:12:48.646Z,3324
2017-02-23T13:13:47.652Z,2560
2017-02-23T13:14:48.062Z,1844
2017-02-23T13:15:48.115Z,1680
2017-02-23T13:16:47.715Z,1592
2017-02-23T13:17:48.001Z,1532
2017-02-23T13:18:48.181Z,1764
2017-02-23T13:19:48.613Z,1796
2017-02-23T13:20:48.239Z,1248
2017-02-23T13:21:47.861Z,1488
2017-02-23T13:22:48.549Z,1980
2017-02-23T13:23:48.320Z,1192
2017-02-23T13:24:47.965Z,1516
2017-02-23T13:25:48.361Z,1504
2017-02-23T13:26:48.795Z,1332
2017-02-23T13:27:48.331Z,1784
2017-02-23T13:28:48.445Z,1860
2017-02-23T13:29:48.526Z,1592
2017-02-23T13:30:48.513Z,1736
2017-02-23T13:31:48.537Z,3476
2017-02-23T13:32:48.823Z,1836
2017-02-23T13:33:48.595Z,2164
2017-02-23T13:34:47.848Z,1880
2017-02-23T13:35:48.649Z,1528
2017-02-23T13:36:47.894Z,1516
2017-02-23T13:37:48.956Z,1220
2017-02-23T13:38:48.727Z,1032
2017-02-23T13:39:48.764Z,1168
2017-02-23T13:40:48.421Z,916
2017-02-23T13:41:48.809Z,1044
2017-02-23T13:42:48.695Z,992
2017-02-23T13:43:49.268Z,968
2017-02-23T13:44:48.904Z,1168
2017-02-23T13:45:49.333Z,1520
2017-02-23T13:46:48.962Z,1400
2017-02-23T13:47:49.643Z,1500
2017-02-23T13:48:49.011Z,1564
2017-02-23T13:49:49.431Z,1400
2017-02-23T13:50:49.068Z,2132
2017-02-23T13:51:48.704Z,1812
2017-02-23T13:52:49.387Z,1368
2017-02-23T13:53:49.151Z,2416
2017-02-23T13:54:49.580Z,1748
2017-02-23T13:55:49.625Z,2952
2017-02-23T13:56:49.226Z,2604
2017-02-23T13:57:49.915Z,2320
2017-02-23T13:58:49.275Z,1860
2017-02-23T13:59:49.307Z,1944
2017-02-23T14:00:49.737Z,1952
2017-02-23T14:01:48.577Z,1488